WetterOnline ( http://www.wetteronline.de )

Wetter aktuell Plön

Aktuelles Wetter: Dörnick (28m)

6-stündlich | Neueste Meldungen
Ortszeit Temperatur Wetter
Do, 15.11. 19:00 8.4° C wolkenlos
Do, 15.11. 13:00 10.9° C wolkenlos
Do, 15.11. 7:00 7.4° C wolkig
Do, 15.11. 1:00 8.6° C wolkig
Mi, 14.11. 19:00 9.1° C bedeckt
Mi, 14.11. 13:00 9.1° C bewölkt
Mi, 14.11. 7:00 7.0° C wolkig
Mi, 14.11. 1:00 9.4° C bedeckt
Ortszeit Temperatur Wetter
Fr, 16.11. 0:00 6.5° C wolkenlos
Do, 15.11. 23:50 6.5° C wolkenlos
Do, 15.11. 23:40 6.7° C fast wolkenlos
Do, 15.11. 23:30 7.0° C leicht bewölkt
Do, 15.11. 23:20 7.0° C leicht bewölkt
Do, 15.11. 23:10 6.9° C wolkig
Do, 15.11. 23:00 7.0° C leicht bewölkt
Do, 15.11. 22:30 7.1° C leicht bewölkt
Do, 15.11. 22:00 7.3° C wolkenlos
Do, 15.11. 21:30 7.5° C wolkenlos
Do, 15.11. 21:00 7.7° C wolkenlos
Ortszeit Relative Feuchte Sichtweite
Do, 15.11. 19:00 81% 17 km
Do, 15.11. 13:00 74% 19 km
Do, 15.11. 7:00 93% 10 km
Do, 15.11. 1:00 92% 10 km
Mi, 14.11. 19:00 94% 5.0 km
Mi, 14.11. 13:00 92% 6 km
Mi, 14.11. 7:00 95% 7 km
Mi, 14.11. 1:00 87% 30 km
Ortszeit Relative Feuchte Sichtweite
Fr, 16.11. 0:00 88% 12 km
Do, 15.11. 23:50 88% -
Do, 15.11. 23:40 88% -
Do, 15.11. 23:30 87% 11 km
Do, 15.11. 23:20 87% -
Do, 15.11. 23:10 88% -
Do, 15.11. 23:00 87% 11 km
Do, 15.11. 22:30 86% 11 km
Do, 15.11. 22:00 86% 12 km
Do, 15.11. 21:30 84% 13 km
Do, 15.11. 21:00 83% 13 km
Ortszeit Niederschlagsmenge Niederschlagsart
Do, 15.11. 19:00 0.0 l/m2 in 12 Std. -
Do, 15.11. 13:00 0.0 l/m2 in 6 Std. -
Do, 15.11. 7:00 0.1 l/m2 in 12 Std. -
Do, 15.11. 1:00 0.1 l/m2 in 6 Std. Regen
Mi, 14.11. 19:00 0.0 l/m2 in 12 Std. -
Mi, 14.11. 13:00 0.0 l/m2 in 6 Std. -
Mi, 14.11. 7:00 0.1 l/m2 in 12 Std. -
Mi, 14.11. 1:00 0.1 l/m2 in 6 Std. Regen
Ortszeit Niederschlagsmenge Niederschlagsart
Fr, 16.11. 0:00 0.0 l/m2 in 1 Std. -
Do, 15.11. 23:50 keine Meldung -
Do, 15.11. 23:40 keine Meldung -
Do, 15.11. 23:30 0.0 l/m2 in 1 Std. -
Do, 15.11. 23:20 keine Meldung -
Do, 15.11. 23:10 keine Meldung -
Do, 15.11. 23:00 0.0 l/m2 in 1 Std. -
Do, 15.11. 22:30 0.0 l/m2 in 1 Std. -
Do, 15.11. 22:00 0.0 l/m2 in 1 Std. -
Do, 15.11. 21:30 0.0 l/m2 in 1 Std. -
Do, 15.11. 21:00 0.0 l/m2 in 1 Std. -
Ortszeit Stärke Spitze Richtung
km/h Bft. km/h Grad Sektor
Do, 15.11. 19:00 13 3 26 120° SO
Do, 15.11. 13:00 9 2 19 130° SO
Do, 15.11. 7:00 13 3 19 160° S
Do, 15.11. 1:00 7 2 19 170° S
Mi, 14.11. 19:00 11 2 22 170° S
Mi, 14.11. 13:00 11 2 29 210° SW
Mi, 14.11. 7:00 14 3 36 220° SW
Mi, 14.11. 1:00 22 4 43 240° SW
Ortszeit Stärke Spitze Richtung
km/h Bft. km/h Grad Sektor
Fr, 16.11. 0:00 9 2 19 130° SO
Do, 15.11. 23:50 9 2 - 130° SO
Do, 15.11. 23:40 9 2 - 130° SO
Do, 15.11. 23:30 11 2 18 140° SO
Do, 15.11. 23:20 11 2 - 140° SO
Do, 15.11. 23:10 11 2 - 140° SO
Do, 15.11. 23:00 11 2 22 140° SO
Do, 15.11. 22:30 11 2 19 140° SO
Do, 15.11. 22:00 13 3 22 150° SO
Do, 15.11. 21:30 14 3 22 140° SO
Do, 15.11. 21:00 14 3 25 140° SO
Ortszeit Untergrenze Bedeckung Gattung
total tief tief mittel hoch
Do, 15.11. 19:00 - 0/8 0/8 - - -
Do, 15.11. 13:00 - 0/8 0/8 - - -
Do, 15.11. 7:00 2100 m 8/8 1/8 - - -
Do, 15.11. 1:00 2700 m 8/8 1/8 - - -
Mi, 14.11. 19:00 2700 m 8/8 8/8 - - -
Mi, 14.11. 13:00 210 m 8/8 6/8 - - -
Mi, 14.11. 7:00 1140 m 8/8 1/8 - - -
Mi, 14.11. 1:00 570 m 8/8 8/8 - - -
Ortszeit Bedeckungsgrad in Achtel und Wolkenuntergrenze
Fr, 16.11. 0:00 keine Wolken
Do, 15.11. 23:50 keine Wolken
Do, 15.11. 23:40 1(12000m)
Do, 15.11. 23:30 5(12000m)
Do, 15.11. 23:20 5(12000m)
Do, 15.11. 23:10 7(12000m)
Do, 15.11. 23:00 4(12000m)
Do, 15.11. 22:30 3(12000m)
Do, 15.11. 22:00 keine Wolken
Do, 15.11. 21:30 keine Wolken
Do, 15.11. 21:00 keine Wolken
Ortszeit Luftdruck NN (hPa) Tendenz (hPa in 3 Std.)
Do, 15.11. 19:00 1029 + 0,3
Do, 15.11. 13:00 1029 - 0,1
Do, 15.11. 7:00 1028 0,0
Do, 15.11. 1:00 1028 + 0,2
Mi, 14.11. 19:00 1028 + 0,2
Mi, 14.11. 13:00 1028 - 0,1
Mi, 14.11. 7:00 1027 + 1,2
Mi, 14.11. 1:00 1024 + 1,7
Ortszeit Luftdruck NN (hPa) Tendenz (hPa in 3 Std.)
Fr, 16.11. 0:00 1030 + 0,8
Do, 15.11. 23:50 1030 keine Meldung
Do, 15.11. 23:40 1030 keine Meldung
Do, 15.11. 23:30 1030 + 1,0
Do, 15.11. 23:20 1030 keine Meldung
Do, 15.11. 23:10 1030 keine Meldung
Do, 15.11. 23:00 1030 + 0,7
Do, 15.11. 22:30 1030 + 0,9
Do, 15.11. 22:00 1030 + 1,1
Do, 15.11. 21:30 1030 + 1,0
Do, 15.11. 21:00 1029 + 0,9
Ortszeit Schneehöhe (cm)
Do, 15.11. 19:00 0
Do, 15.11. 13:00 0
Do, 15.11. 7:00 0
Do, 15.11. 1:00 0
Mi, 14.11. 19:00 0
Mi, 14.11. 13:00 0
Mi, 14.11. 7:00 0
Mi, 14.11. 1:00 0
Ortszeit Schneehöhe (cm)
Fr, 16.11. 0:00 0
Do, 15.11. 23:50 0
Do, 15.11. 23:40 0
Do, 15.11. 23:30 0
Do, 15.11. 23:20 0
Do, 15.11. 23:10 0
Do, 15.11. 23:00 0
Do, 15.11. 22:30 0
Do, 15.11. 22:00 0
Do, 15.11. 21:30 0
Do, 15.11. 21:00 0
Link zu dieser Seite / Seite empfehlen

Das Wetter in ...